sensor_id;sensor_type;location;lat;lon;timestamp;pressure;altitude;pressure_sealevel;temperature;humidity
78562;BME280;68963;52.138;5.446;2023-04-10T00:01:59;102287.50;;;8.33;76.92
78562;BME280;68963;52.138;5.446;2023-04-10T00:04:25;102274.50;;;8.32;76.49
78562;BME280;68963;52.138;5.446;2023-04-10T00:06:53;102271.31;;;8.28;76.83
78562;BME280;68963;52.138;5.446;2023-04-10T00:09:20;102266.47;;;8.23;77.05
78562;BME280;68963;52.138;5.446;2023-04-10T00:11:47;102257.22;;;8.19;77.52
78562;BME280;68963;52.138;5.446;2023-04-10T00:14:14;102257.38;;;8.18;77.27
78562;BME280;68963;52.138;5.446;2023-04-10T00:16:40;102260.56;;;8.21;77.42
78562;BME280;68963;52.138;5.446;2023-04-10T00:19:07;102261.66;;;8.19;77.42
78562;BME280;68963;52.138;5.446;2023-04-10T00:21:33;102258.19;;;8.18;77.10
78562;BME280;68963;52.138;5.446;2023-04-10T00:24:00;102246.88;;;8.18;77.09
78562;BME280;68963;52.138;5.446;2023-04-10T00:26:26;102240.66;;;8.19;77.13
78562;BME280;68963;52.138;5.446;2023-04-10T00:28:53;102239.81;;;8.18;77.06
78562;BME280;68963;52.138;5.446;2023-04-10T00:31:20;102228.78;;;8.15;77.65
78562;BME280;68963;52.138;5.446;2023-04-10T00:33:46;102227.50;;;8.09;77.86
78562;BME280;68963;52.138;5.446;2023-04-10T00:36:13;102220.75;;;8.07;78.25
78562;BME280;68963;52.138;5.446;2023-04-10T00:38:39;102216.47;;;8.06;78.27
78562;BME280;68963;52.138;5.446;2023-04-10T00:41:06;102220.31;;;8.02;78.49
78562;BME280;68963;52.138;5.446;2023-04-10T00:43:32;102210.09;;;7.98;78.59
78562;BME280;68963;52.138;5.446;2023-04-10T00:45:59;102208.88;;;7.93;78.74
78562;BME280;68963;52.138;5.446;2023-04-10T00:48:27;102210.94;;;7.89;78.65
78562;BME280;68963;52.138;5.446;2023-04-10T00:50:53;102205.81;;;7.88;78.74
78562;BME280;68963;52.138;5.446;2023-04-10T00:53:20;102207.59;;;7.87;79.43
78562;BME280;68963;52.138;5.446;2023-04-10T00:55:48;102203.19;;;7.88;78.92
78562;BME280;68963;52.138;5.446;2023-04-10T00:58:15;102204.72;;;7.90;78.54
78562;BME280;68963;52.138;5.446;2023-04-10T01:00:41;102202.09;;;7.90;78.69
78562;BME280;68963;52.138;5.446;2023-04-10T01:03:09;102202.91;;;7.91;78.75
78562;BME280;68963;52.138;5.446;2023-04-10T01:08:54;102198.22;;;7.85;78.50
78562;BME280;68963;52.138;5.446;2023-04-10T01:11:32;102196.44;;;7.85;78.38
78562;BME280;68963;52.138;5.446;2023-04-10T01:14:41;102195.59;;;7.85;78.46
78562;BME280;68963;52.138;5.446;2023-04-10T01:17:38;102187.19;;;7.81;78.39
78562;BME280;68963;52.138;5.446;2023-04-10T01:20:11;102187.84;;;7.83;78.60
78562;BME280;68963;52.138;5.446;2023-04-10T01:22:51;102182.75;;;7.82;78.17
78562;BME280;68963;52.138;5.446;2023-04-10T01:28:23;102174.59;;;7.75;78.44
78562;BME280;68963;52.138;5.446;2023-04-10T01:31:00;102170.19;;;7.75;78.73
78562;BME280;68963;52.138;5.446;2023-04-10T01:33:35;102172.25;;;7.72;79.29
78562;BME280;68963;52.138;5.446;2023-04-10T01:36:05;102165.34;;;7.71;79.20
78562;BME280;68963;52.138;5.446;2023-04-10T01:38:32;102168.66;;;7.73;79.04
78562;BME280;68963;52.138;5.446;2023-04-10T01:41:01;102165.63;;;7.68;79.40
78562;BME280;68963;52.138;5.446;2023-04-10T01:43:29;102156.38;;;7.64;79.10
78562;BME280;68963;52.138;5.446;2023-04-10T01:45:56;102168.38;;;7.66;79.19
78562;BME280;68963;52.138;5.446;2023-04-10T01:48:24;102160.38;;;7.68;79.42
78562;BME280;68963;52.138;5.446;2023-04-10T01:50:53;102159.41;;;7.69;79.48
78562;BME280;68963;52.138;5.446;2023-04-10T01:53:20;102153.75;;;7.73;79.17
78562;BME280;68963;52.138;5.446;2023-04-10T01:55:49;102156.25;;;7.75;78.76
78562;BME280;68963;52.138;5.446;2023-04-10T01:58:16;102152.78;;;7.74;78.97
78562;BME280;68963;52.138;5.446;2023-04-10T02:00:43;102151.81;;;7.75;78.82
78562;BME280;68963;52.138;5.446;2023-04-10T02:03:09;102149.19;;;7.75;78.64
78562;BME280;68963;52.138;5.446;2023-04-10T02:06:09;102151.28;;;7.82;78.69
78562;BME280;68963;52.138;5.446;2023-04-10T02:08:41;102144.22;;;7.82;78.42
78562;BME280;68963;52.138;5.446;2023-04-10T02:13:47;102139.41;;;7.78;78.51
78562;BME280;68963;52.138;5.446;2023-04-10T02:16:14;102128.91;;;7.78;78.79
78562;BME280;68963;52.138;5.446;2023-04-10T02:18:44;102130.41;;;7.80;78.88
78562;BME280;68963;52.138;5.446;2023-04-10T02:21:11;102137.47;;;7.80;78.71
78562;BME280;68963;52.138;5.446;2023-04-10T02:23:38;102139.41;;;7.78;78.97
78562;BME280;68963;52.138;5.446;2023-04-10T02:26:07;102139.41;;;7.78;79.12
78562;BME280;68963;52.138;5.446;2023-04-10T02:28:36;102126.16;;;7.79;78.90
78562;BME280;68963;52.138;5.446;2023-04-10T02:31:03;102120.22;;;7.77;78.57
78562;BME280;68963;52.138;5.446;2023-04-10T02:33:29;102120.22;;;7.77;78.82
78562;BME280;68963;52.138;5.446;2023-04-10T02:35:56;102131.00;;;7.74;78.97
78562;BME280;68963;52.138;5.446;2023-04-10T02:38:22;102128.63;;;7.71;79.13
78562;BME280;68963;52.138;5.446;2023-04-10T02:40:49;102133.72;;;7.72;79.23
78562;BME280;68963;52.138;5.446;2023-04-10T02:43:15;102127.66;;;7.72;79.22
78562;BME280;68963;52.138;5.446;2023-04-10T02:45:42;102130.44;;;7.70;79.35
78562;BME280;68963;52.138;5.446;2023-04-10T02:48:09;102125.59;;;7.75;79.43
78562;BME280;68963;52.138;5.446;2023-04-10T02:50:36;102128.63;;;7.71;78.98
78562;BME280;68963;52.138;5.446;2023-04-10T02:53:02;102126.97;;;7.70;78.89
78562;BME280;68963;52.138;5.446;2023-04-10T02:55:29;102129.59;;;7.70;79.01
78562;BME280;68963;52.138;5.446;2023-04-10T02:57:55;102130.16;;;7.64;79.67
78562;BME280;68963;52.138;5.446;2023-04-10T03:00:22;102129.31;;;7.63;79.45
78562;BME280;68963;52.138;5.446;2023-04-10T03:02:49;102132.06;;;7.62;79.76
78562;BME280;68963;52.138;5.446;2023-04-10T03:05:16;102136.63;;;7.60;79.51
78562;BME280;68963;52.138;5.446;2023-04-10T03:07:42;102144.75;;;7.57;79.61
78562;BME280;68963;52.138;5.446;2023-04-10T03:10:09;102142.97;;;7.57;79.76
78562;BME280;68963;52.138;5.446;2023-04-10T03:12:35;102140.06;;;7.60;79.46
78562;BME280;68963;52.138;5.446;2023-04-10T03:15:03;102142.97;;;7.57;79.42
78562;BME280;68963;52.138;5.446;2023-04-10T03:17:29;102130.13;;;7.54;80.05
78562;BME280;68963;52.138;5.446;2023-04-10T03:19:56;102130.53;;;7.49;79.94
78562;BME280;68963;52.138;5.446;2023-04-10T03:22:22;102130.69;;;7.48;79.85
78562;BME280;68963;52.138;5.446;2023-04-10T03:24:49;102128.88;;;7.48;80.24
78562;BME280;68963;52.138;5.446;2023-04-10T03:27:16;102125.72;;;7.45;79.50
78562;BME280;68963;52.138;5.446;2023-04-10T03:29:42;102119.75;;;7.43;80.03
78562;BME280;68963;52.138;5.446;2023-04-10T03:32:09;102125.16;;;7.41;80.05
78562;BME280;68963;52.138;5.446;2023-04-10T03:34:35;102124.69;;;7.36;80.52
78562;BME280;68963;52.138;5.446;2023-04-10T03:37:02;102121.53;;;7.33;80.33
78562;BME280;68963;52.138;5.446;2023-04-10T03:39:28;102125.00;;;7.33;80.95
78562;BME280;68963;52.138;5.446;2023-04-10T03:41:55;102120.13;;;7.29;80.46
78562;BME280;68963;52.138;5.446;2023-04-10T03:44:22;102118.50;;;7.28;80.56
78562;BME280;68963;52.138;5.446;2023-04-10T03:46:49;102120.28;;;7.27;80.93
78562;BME280;68963;52.138;5.446;2023-04-10T03:49:15;102118.50;;;7.28;80.77
78562;BME280;68963;52.138;5.446;2023-04-10T03:51:42;102108.28;;;7.24;81.20
78562;BME280;68963;52.138;5.446;2023-04-10T03:54:09;102111.31;;;7.20;81.54
78562;BME280;68963;52.138;5.446;2023-04-10T03:56:35;102110.75;;;7.16;81.46
78562;BME280;68963;52.138;5.446;2023-04-10T03:59:02;102106.59;;;7.14;81.78
78562;BME280;68963;52.138;5.446;2023-04-10T04:01:28;102105.75;;;7.13;81.68
78562;BME280;68963;52.138;5.446;2023-04-10T04:03:55;102101.50;;;7.12;81.48
78562;BME280;68963;52.138;5.446;2023-04-10T04:06:22;102099.84;;;7.11;81.80
78562;BME280;68963;52.138;5.446;2023-04-10T04:08:48;102095.44;;;7.12;81.84
78562;BME280;68963;52.138;5.446;2023-04-10T04:11:15;102088.09;;;7.06;82.72
78562;BME280;68963;52.138;5.446;2023-04-10T04:13:41;102084.22;;;7.00;82.71
78562;BME280;68963;52.138;5.446;2023-04-10T04:16:08;102078.28;;;6.98;82.63
78562;BME280;68963;52.138;5.446;2023-04-10T04:18:35;102082.00;;;6.95;82.69
78562;BME280;68963;52.138;5.446;2023-04-10T04:21:01;102080.34;;;6.94;82.87
78562;BME280;68963;52.138;5.446;2023-04-10T04:23:28;102077.59;;;6.96;82.81
78562;BME280;68963;52.138;5.446;2023-04-10T04:25:56;102081.72;;;6.98;82.49
78562;BME280;68963;52.138;5.446;2023-04-10T04:28:23;102084.22;;;7.00;82.48
78562;BME280;68963;52.138;5.446;2023-04-10T04:30:49;102088.63;;;6.99;82.21
78562;BME280;68963;52.138;5.446;2023-04-10T04:33:16;102088.75;;;6.98;83.05
78562;BME280;68963;52.138;5.446;2023-04-10T04:35:42;102090.56;;;6.97;82.28
78562;BME280;68963;52.138;5.446;2023-04-10T04:38:09;102079.25;;;6.97;82.78
78562;BME280;68963;52.138;5.446;2023-04-10T04:40:35;102071.91;;;6.91;82.57
78562;BME280;68963;52.138;5.446;2023-04-10T04:43:02;102073.00;;;6.88;83.43
78562;BME280;68963;52.138;5.446;2023-04-10T04:45:28;102075.06;;;6.85;83.39
78562;BME280;68963;52.138;5.446;2023-04-10T04:47:56;102072.59;;;6.83;83.79
78562;BME280;68963;52.138;5.446;2023-04-10T04:50:22;102067.75;;;6.78;84.12
78562;BME280;68963;52.138;5.446;2023-04-10T04:52:49;102062.78;;;6.75;84.29
78562;BME280;68963;52.138;5.446;2023-04-10T04:55:16;102064.56;;;6.75;84.75
78562;BME280;68963;52.138;5.446;2023-04-10T04:57:42;102074.34;;;6.73;84.49
78562;BME280;68963;52.138;5.446;2023-04-10T05:00:09;102063.84;;;6.73;84.04
78562;BME280;68963;52.138;5.446;2023-04-10T05:02:36;102068.72;;;6.77;83.81
78562;BME280;68963;52.138;5.446;2023-04-10T05:05:03;102066.94;;;6.78;84.11
78562;BME280;68963;52.138;5.446;2023-04-10T05:07:29;102074.91;;;6.76;83.37
78562;BME280;68963;52.138;5.446;2023-04-10T05:09:56;102074.78;;;6.78;83.54
78562;BME280;68963;52.138;5.446;2023-04-10T05:12:23;102072.03;;;6.80;83.53
78562;BME280;68963;52.138;5.446;2023-04-10T05:14:49;102053.69;;;6.80;83.67
78562;BME280;68963;52.138;5.446;2023-04-10T05:17:16;102056.88;;;6.83;83.49
78562;BME280;68963;52.138;5.446;2023-04-10T05:19:42;102051.63;;;6.83;83.80
78562;BME280;68963;52.138;5.446;2023-04-10T05:22:09;102050.09;;;6.81;83.26
78562;BME280;68963;52.138;5.446;2023-04-10T05:24:35;102057.69;;;6.84;83.53
78562;BME280;68963;52.138;5.446;2023-04-10T05:27:02;102051.94;;;6.90;83.30
78562;BME280;68963;52.138;5.446;2023-04-10T05:29:28;102056.66;;;6.96;83.46
78562;BME280;68963;52.138;5.446;2023-04-10T05:31:55;102051.94;;;6.99;82.76
78562;BME280;68963;52.138;5.446;2023-04-10T05:34:21;102055.81;;;7.05;82.28
78562;BME280;68963;52.138;5.446;2023-04-10T05:36:48;102053.50;;;7.12;82.41
78562;BME280;68963;52.138;5.446;2023-04-10T05:39:14;102054.75;;;7.17;82.44
78562;BME280;68963;52.138;5.446;2023-04-10T05:41:41;102045.53;;;7.23;82.19
78562;BME280;68963;52.138;5.446;2023-04-10T05:44:08;102043.47;;;7.26;82.32
78562;BME280;68963;52.138;5.446;2023-04-10T05:46:34;102040.56;;;7.30;82.25
78562;BME280;68963;52.138;5.446;2023-04-10T05:49:01;102045.41;;;7.34;82.21
78562;BME280;68963;52.138;5.446;2023-04-10T05:51:27;102043.19;;;7.39;82.01
78562;BME280;68963;52.138;5.446;2023-04-10T05:53:54;102035.75;;;7.44;81.83
78562;BME280;68963;52.138;5.446;2023-04-10T05:56:20;102045.81;;;7.49;81.84
78562;BME280;68963;52.138;5.446;2023-04-10T05:58:47;102037.53;;;7.54;81.33
78562;BME280;68963;52.138;5.446;2023-04-10T06:01:13;102039.47;;;7.61;81.86
78562;BME280;68963;52.138;5.446;2023-04-10T06:03:40;102036.44;;;7.66;81.86
78562;BME280;68963;52.138;5.446;2023-04-10T06:06:07;102030.50;;;7.73;81.33
78562;BME280;68963;52.138;5.446;2023-04-10T06:08:33;102031.59;;;7.81;80.63
78562;BME280;68963;52.138;5.446;2023-04-10T06:11:00;102035.16;;;7.89;80.15
78562;BME280;68963;52.138;5.446;2023-04-10T06:13:27;102029.38;;;7.95;79.87
78562;BME280;68963;52.138;5.446;2023-04-10T06:15:53;102018.44;;;8.00;79.70
78562;BME280;68963;52.138;5.446;2023-04-10T06:18:20;102019.81;;;8.04;79.09
78562;BME280;68963;52.138;5.446;2023-04-10T06:20:46;102018.28;;;8.11;79.03
78562;BME280;68963;52.138;5.446;2023-04-10T06:23:13;102012.47;;;8.17;79.32
78562;BME280;68963;52.138;5.446;2023-04-10T06:25:39;102007.88;;;8.19;78.15
78562;BME280;68963;52.138;5.446;2023-04-10T06:28:06;101997.63;;;8.26;78.18
78562;BME280;68963;52.138;5.446;2023-04-10T06:30:32;101994.44;;;8.32;78.24
78562;BME280;68963;52.138;5.446;2023-04-10T06:32:59;101994.88;;;8.37;77.10
78562;BME280;68963;52.138;5.446;2023-04-10T06:35:26;101989.88;;;8.44;77.25
78562;BME280;68963;52.138;5.446;2023-04-10T06:37:53;101987.50;;;8.51;76.82
78562;BME280;68963;52.138;5.446;2023-04-10T06:40:19;101984.25;;;8.57;76.67
78562;BME280;68963;52.138;5.446;2023-04-10T06:42:46;101981.88;;;8.63;76.45
78562;BME280;68963;52.138;5.446;2023-04-10T06:45:12;101970.94;;;8.68;75.83
78562;BME280;68963;52.138;5.446;2023-04-10T06:47:39;101971.16;;;8.75;76.32
78562;BME280;68963;52.138;5.446;2023-04-10T06:50:05;101964.50;;;8.80;76.26
78562;BME280;68963;52.138;5.446;2023-04-10T06:52:32;101950.94;;;8.85;75.84
78562;BME280;68963;52.138;5.446;2023-04-10T06:54:58;101964.13;;;8.93;75.81
78562;BME280;68963;52.138;5.446;2023-04-10T06:57:25;101960.75;;;9.01;75.32
78562;BME280;68963;52.138;5.446;2023-04-10T06:59:52;101959.19;;;9.08;75.19
78562;BME280;68963;52.138;5.446;2023-04-10T07:02:18;101949.72;;;9.15;75.05
78562;BME280;68963;52.138;5.446;2023-04-10T07:04:45;101942.19;;;9.20;73.60
78562;BME280;68963;52.138;5.446;2023-04-10T07:07:11;101938.16;;;9.26;74.11
78562;BME280;68963;52.138;5.446;2023-04-10T07:09:38;101941.66;;;9.34;73.02
78562;BME280;68963;52.138;5.446;2023-04-10T07:12:05;101931.19;;;9.42;73.46
78562;BME280;68963;52.138;5.446;2023-04-10T07:14:32;101927.84;;;9.50;73.75
78562;BME280;68963;52.138;5.446;2023-04-10T07:17:00;101907.66;;;9.59;73.54
78562;BME280;68963;52.138;5.446;2023-04-10T07:19:26;101915.59;;;9.67;73.77
78562;BME280;68963;52.138;5.446;2023-04-10T07:21:53;101913.53;;;9.79;73.27
78562;BME280;68963;52.138;5.446;2023-04-10T07:24:19;101907.34;;;9.88;72.11
78562;BME280;68963;52.138;5.446;2023-04-10T07:26:46;101904.75;;;9.96;72.21
78562;BME280;68963;52.138;5.446;2023-04-10T07:29:13;101900.19;;;10.06;71.21
78562;BME280;68963;52.138;5.446;2023-04-10T07:31:39;101890.31;;;10.08;70.66
78562;BME280;68963;52.138;5.446;2023-04-10T07:34:06;101895.63;;;10.16;70.76
78562;BME280;68963;52.138;5.446;2023-04-10T07:36:33;101895.50;;;10.26;69.87
78562;BME280;68963;52.138;5.446;2023-04-10T07:38:59;101885.84;;;10.35;68.77
78562;BME280;68963;52.138;5.446;2023-04-10T07:41:26;101883.56;;;10.48;69.39
78562;BME280;68963;52.138;5.446;2023-04-10T07:43:52;101882.75;;;10.56;66.50
78562;BME280;68963;52.138;5.446;2023-04-10T07:46:19;101878.84;;;10.68;67.15
78562;BME280;68963;52.138;5.446;2023-04-10T07:48:45;101876.38;;;10.83;65.85
78562;BME280;68963;52.138;5.446;2023-04-10T07:51:15;101880.00;;;10.98;66.02
78562;BME280;68963;52.138;5.446;2023-04-10T07:53:42;101875.88;;;11.12;64.72
78562;BME280;68963;52.138;5.446;2023-04-10T07:56:14;101868.28;;;11.25;64.89
78562;BME280;68963;52.138;5.446;2023-04-10T07:58:41;101864.94;;;11.48;64.15
78562;BME280;68963;52.138;5.446;2023-04-10T08:01:08;101859.63;;;11.56;63.37
78562;BME280;68963;52.138;5.446;2023-04-10T08:03:42;101853.88;;;11.60;63.71
78562;BME280;68963;52.138;5.446;2023-04-10T08:06:10;101848.75;;;11.67;64.33
78562;BME280;68963;52.138;5.446;2023-04-10T08:08:38;101854.84;;;11.68;63.02
78562;BME280;68963;52.138;5.446;2023-04-10T08:13:52;101848.59;;;11.52;62.38
78562;BME280;68963;52.138;5.446;2023-04-10T08:16:23;101846.47;;;11.48;62.13
78562;BME280;68963;52.138;5.446;2023-04-10T08:18:51;101836.75;;;11.48;62.20
78562;BME280;68963;52.138;5.446;2023-04-10T08:21:20;101845.00;;;11.53;62.60
78562;BME280;68963;52.138;5.446;2023-04-10T08:23:49;101844.47;;;11.58;62.98
78562;BME280;68963;52.138;5.446;2023-04-10T08:26:16;101840.31;;;11.72;63.52
78562;BME280;68963;52.138;5.446;2023-04-10T08:28:49;101844.41;;;11.91;62.91
78562;BME280;68963;52.138;5.446;2023-04-10T08:31:17;101845.31;;;12.06;61.83
78562;BME280;68963;52.138;5.446;2023-04-10T08:33:44;101839.81;;;12.16;61.22
78562;BME280;68963;52.138;5.446;2023-04-10T08:36:12;101834.00;;;12.20;61.50
78562;BME280;68963;52.138;5.446;2023-04-10T08:38:44;101827.09;;;12.19;61.28
78562;BME280;68963;52.138;5.446;2023-04-10T08:41:16;101811.19;;;12.27;61.97
78562;BME280;68963;52.138;5.446;2023-04-10T08:43:43;101814.94;;;12.33;60.74
78562;BME280;68963;52.138;5.446;2023-04-10T08:46:12;101818.22;;;12.35;61.89
78562;BME280;68963;52.138;5.446;2023-04-10T08:48:55;101817.88;;;12.38;61.02
78562;BME280;68963;52.138;5.446;2023-04-10T08:51:38;101809.44;;;12.43;60.73
78562;BME280;68963;52.138;5.446;2023-04-10T08:54:10;101801.22;;;12.38;60.73
78562;BME280;68963;52.138;5.446;2023-04-10T08:56:40;101808.97;;;12.39;61.60
78562;BME280;68963;52.138;5.446;2023-04-10T08:59:08;101801.31;;;12.44;61.97
78562;BME280;68963;52.138;5.446;2023-04-10T09:01:34;101807.59;;;12.43;61.11
78562;BME280;68963;52.138;5.446;2023-04-10T09:04:01;101801.69;;;12.41;61.44
78562;BME280;68963;52.138;5.446;2023-04-10T09:06:28;101800.34;;;12.45;61.89
78562;BME280;68963;52.138;5.446;2023-04-10T09:08:55;101800.63;;;12.50;62.08
78562;BME280;68963;52.138;5.446;2023-04-10T09:11:21;101793.34;;;12.52;61.44
78562;BME280;68963;52.138;5.446;2023-04-10T09:13:48;101790.03;;;12.50;61.38
78562;BME280;68963;52.138;5.446;2023-04-10T09:16:15;101781.50;;;12.48;60.86
78562;BME280;68963;52.138;5.446;2023-04-10T09:18:46;101779.66;;;12.49;61.64
78562;BME280;68963;52.138;5.446;2023-04-10T09:21:15;101771.91;;;12.47;61.18
78562;BME280;68963;52.138;5.446;2023-04-10T09:23:43;101765.16;;;12.45;61.24
78562;BME280;68963;52.138;5.446;2023-04-10T09:26:24;101759.22;;;12.43;61.57
78562;BME280;68963;52.138;5.446;2023-04-10T09:29:04;101763.97;;;12.47;61.45
78562;BME280;68963;52.138;5.446;2023-04-10T09:31:33;101748.94;;;12.48;61.42
78562;BME280;68963;52.138;5.446;2023-04-10T09:34:11;101748.41;;;12.52;61.75
78562;BME280;68963;52.138;5.446;2023-04-10T09:36:59;101742.59;;;12.57;61.16
78562;BME280;68963;52.138;5.446;2023-04-10T09:39:36;101741.34;;;12.68;61.59
78562;BME280;68963;52.138;5.446;2023-04-10T09:42:06;101729.75;;;12.69;60.80
78562;BME280;68963;52.138;5.446;2023-04-10T09:44:35;101729.13;;;12.67;59.86
78562;BME280;68963;52.138;5.446;2023-04-10T09:47:19;101718.72;;;12.65;60.51
78562;BME280;68963;52.138;5.446;2023-04-10T09:49:53;101718.84;;;12.72;60.69
78562;BME280;68963;52.138;5.446;2023-04-10T09:52:31;101707.16;;;12.81;61.57
78562;BME280;68963;52.138;5.446;2023-04-10T09:55:08;101713.66;;;12.93;61.79
78562;BME280;68963;52.138;5.446;2023-04-10T09:57:43;101708.63;;;12.98;61.39
78562;BME280;68963;52.138;5.446;2023-04-10T10:00:11;101704.72;;;13.09;60.98
78562;BME280;68963;52.138;5.446;2023-04-10T10:02:39;101701.97;;;13.17;60.65
78562;BME280;68963;52.138;5.446;2023-04-10T10:05:09;101700.91;;;13.26;60.33
78562;BME280;68963;52.138;5.446;2023-04-10T10:07:37;101685.75;;;13.35;59.45
78562;BME280;68963;52.138;5.446;2023-04-10T10:10:05;101689.03;;;13.37;58.82
78562;BME280;68963;52.138;5.446;2023-04-10T10:12:33;101685.03;;;13.41;59.84
78562;BME280;68963;52.138;5.446;2023-04-10T10:15:03;101686.16;;;13.53;60.03
78562;BME280;68963;52.138;5.446;2023-04-10T10:17:37;101679.56;;;13.64;59.93
78562;BME280;68963;52.138;5.446;2023-04-10T10:20:08;101680.53;;;13.78;59.75
78562;BME280;68963;52.138;5.446;2023-04-10T10:22:36;101667.47;;;13.76;58.80
78562;BME280;68963;52.138;5.446;2023-04-10T10:25:03;101665.72;;;13.84;58.44
78562;BME280;68963;52.138;5.446;2023-04-10T10:27:30;101662.06;;;13.85;57.93
78562;BME280;68963;52.138;5.446;2023-04-10T10:30:00;101652.78;;;13.95;59.51
78562;BME280;68963;52.138;5.446;2023-04-10T10:32:43;101655.13;;;14.05;58.05
78562;BME280;68963;52.138;5.446;2023-04-10T10:35:11;101643.03;;;13.96;57.47
78562;BME280;68963;52.138;5.446;2023-04-10T10:37:38;101637.22;;;14.07;58.24
78562;BME280;68963;52.138;5.446;2023-04-10T10:40:25;101632.38;;;14.17;58.42
78562;BME280;68963;52.138;5.446;2023-04-10T10:42:59;101622.75;;;14.38;56.81
78562;BME280;68963;52.138;5.446;2023-04-10T10:45:34;101624.25;;;14.47;56.07
78562;BME280;68963;52.138;5.446;2023-04-10T10:48:02;101621.06;;;14.52;57.28
78562;BME280;68963;52.138;5.446;2023-04-10T10:50:51;101626.16;;;14.53;56.04
78562;BME280;68963;52.138;5.446;2023-04-10T10:53:33;101612.78;;;14.68;56.32
78562;BME280;68963;52.138;5.446;2023-04-10T10:58:46;101604.09;;;14.81;55.79
78562;BME280;68963;52.138;5.446;2023-04-10T11:01:13;101601.69;;;14.92;56.96
78562;BME280;68963;52.138;5.446;2023-04-10T11:03:41;101599.31;;;15.11;55.89
78562;BME280;68963;52.138;5.446;2023-04-10T11:06:14;101589.56;;;15.25;55.88
78562;BME280;68963;52.138;5.446;2023-04-10T11:08:46;101579.78;;;15.38;55.59
78562;BME280;68963;52.138;5.446;2023-04-10T11:19:03;101549.59;;;15.79;53.57
78562;BME280;68963;52.138;5.446;2023-04-10T11:22:02;101555.13;;;15.84;54.11
78562;BME280;68963;52.138;5.446;2023-04-10T11:25:02;101542.69;;;15.98;54.45
78562;BME280;68963;52.138;5.446;2023-04-10T11:27:44;101539.19;;;15.91;53.97
78562;BME280;68963;52.138;5.446;2023-04-10T11:30:34;101536.31;;;15.99;54.81
78562;BME280;68963;52.138;5.446;2023-04-10T11:33:02;101532.22;;;16.10;53.92
78562;BME280;68963;52.138;5.446;2023-04-10T11:35:30;101535.47;;;16.12;53.22
78562;BME280;68963;52.138;5.446;2023-04-10T11:38:15;101535.47;;;16.05;53.37
78562;BME280;68963;52.138;5.446;2023-04-10T11:41:01;101529.16;;;16.13;54.00
78562;BME280;68963;52.138;5.446;2023-04-10T11:43:50;101513.41;;;16.11;55.21
78562;BME280;68963;52.138;5.446;2023-04-10T11:46:17;101509.06;;;16.24;53.68
78562;BME280;68963;52.138;5.446;2023-04-10T11:48:44;101507.84;;;16.33;52.70
78562;BME280;68963;52.138;5.446;2023-04-10T11:51:12;101491.25;;;16.31;52.69
78562;BME280;68963;52.138;5.446;2023-04-10T11:53:40;101502.75;;;16.25;52.37
78562;BME280;68963;52.138;5.446;2023-04-10T11:56:25;101498.84;;;16.27;53.09
78562;BME280;68963;52.138;5.446;2023-04-10T11:58:55;101494.91;;;16.43;53.07
78562;BME280;68963;52.138;5.446;2023-04-10T12:01:22;101492.19;;;16.56;52.18
78562;BME280;68963;52.138;5.446;2023-04-10T12:03:49;101492.00;;;16.58;52.89
78562;BME280;68963;52.138;5.446;2023-04-10T12:06:17;101493.38;;;16.67;52.64
78562;BME280;68963;52.138;5.446;2023-04-10T12:08:47;101475.75;;;16.79;52.50
78562;BME280;68963;52.138;5.446;2023-04-10T12:11:22;101468.59;;;16.80;52.31
78562;BME280;68963;52.138;5.446;2023-04-10T12:13:56;101468.19;;;16.76;52.85
78562;BME280;68963;52.138;5.446;2023-04-10T12:16:23;101464.91;;;16.81;53.01
78562;BME280;68963;52.138;5.446;2023-04-10T12:18:50;101453.19;;;16.88;52.61
78562;BME280;68963;52.138;5.446;2023-04-10T12:21:18;101449.47;;;16.89;53.30
78562;BME280;68963;52.138;5.446;2023-04-10T12:23:45;101442.53;;;16.88;52.79
78562;BME280;68963;52.138;5.446;2023-04-10T12:26:14;101452.25;;;16.76;52.45
78562;BME280;68963;52.138;5.446;2023-04-10T12:28:51;101440.00;;;16.62;52.31
78562;BME280;68963;52.138;5.446;2023-04-10T12:31:30;101439.22;;;16.55;52.49
78562;BME280;68963;52.138;5.446;2023-04-10T12:34:01;101440.69;;;16.51;53.21
78562;BME280;68963;52.138;5.446;2023-04-10T12:36:29;101433.34;;;16.46;52.84
78562;BME280;68963;52.138;5.446;2023-04-10T12:38:59;101429.22;;;16.50;53.38
78562;BME280;68963;52.138;5.446;2023-04-10T12:41:29;101414.47;;;16.54;53.40
78562;BME280;68963;52.138;5.446;2023-04-10T12:44:25;101400.56;;;16.52;53.81
78562;BME280;68963;52.138;5.446;2023-04-10T12:46:59;101391.59;;;16.47;53.99
78562;BME280;68963;52.138;5.446;2023-04-10T12:49:27;101399.38;;;16.41;54.71
78562;BME280;68963;52.138;5.446;2023-04-10T12:51:53;101392.28;;;16.35;54.62
78562;BME280;68963;52.138;5.446;2023-04-10T12:54:31;101392.72;;;16.26;55.19
78562;BME280;68963;52.138;5.446;2023-04-10T12:56:59;101377.03;;;16.17;55.31
78562;BME280;68963;52.138;5.446;2023-04-10T12:59:30;101377.47;;;16.08;54.14
78562;BME280;68963;52.138;5.446;2023-04-10T13:01:58;101370.16;;;15.97;54.21
78562;BME280;68963;52.138;5.446;2023-04-10T13:04:24;101365.28;;;15.87;54.43
78562;BME280;68963;52.138;5.446;2023-04-10T13:06:51;101358.78;;;15.76;53.99
78562;BME280;68963;52.138;5.446;2023-04-10T13:09:19;101354.53;;;15.68;54.80
78562;BME280;68963;52.138;5.446;2023-04-10T13:11:47;101342.84;;;15.63;54.49
78562;BME280;68963;52.138;5.446;2023-04-10T13:14:17;101327.94;;;15.62;55.02
78562;BME280;68963;52.138;5.446;2023-04-10T13:16:43;101324.50;;;15.61;55.48
78562;BME280;68963;52.138;5.446;2023-04-10T13:19:10;101324.09;;;15.58;55.54
78562;BME280;68963;52.138;5.446;2023-04-10T13:21:40;101321.63;;;15.56;55.47
78562;BME280;68963;52.138;5.446;2023-04-10T13:24:07;101329.81;;;15.55;55.34
78562;BME280;68963;52.138;5.446;2023-04-10T13:26:34;101325.31;;;15.55;55.68
78562;BME280;68963;52.138;5.446;2023-04-10T13:29:00;101316.53;;;15.55;55.82